Terminal Aerodrome Forecast
Issued by NWS Dallas/Fort Worth, TX

Home | Current Version | Previous Version | Text Only | Print | Product List | Glossary On
Versions: 1 2 3 4 5 6 7 8 9 10 11 12 13 14 15 16 17 18 19 20 21 22 23 24
000
FTUS44 KFWD 110909 AAA
TAFACT
TAF AMD
KACT 110909Z 1109/1206 17014KT 4SM -DZ BR OVC009
      TEMPO 1110/1113 2SM -DZ BR OVC004
     FM111600 18018KT P6SM SCT008 OVC012
     FM111800 20018G28KT P6SM OVC020
     FM112000 20018KT P6SM SCT025 SCT250
     FM120500 23015KT P6SM SCT040 BKN250=

USA.gov is the U.S. government's official web portal to all federal, state and local government web resources and services.